sensor_id;sensor_type;location;lat;lon;timestamp;temperature;humidity
19999;DHT22;10160;50.926;4.374;2022-12-29T00:02:25;12.00;99.90
19999;DHT22;10160;50.926;4.374;2022-12-29T00:04:51;12.00;99.90
19999;DHT22;10160;50.926;4.374;2022-12-29T00:07:17;12.10;99.90
19999;DHT22;10160;50.926;4.374;2022-12-29T00:09:43;12.00;99.90
19999;DHT22;10160;50.926;4.374;2022-12-29T00:12:08;12.10;99.90
19999;DHT22;10160;50.926;4.374;2022-12-29T00:14:34;12.10;99.90
19999;DHT22;10160;50.926;4.374;2022-12-29T00:17:18;12.10;99.90
19999;DHT22;10160;50.926;4.374;2022-12-29T00:19:44;12.10;99.90
19999;DHT22;10160;50.926;4.374;2022-12-29T00:22:28;12.10;99.90
19999;DHT22;10160;50.926;4.374;2022-12-29T00:25:13;12.10;99.90
19999;DHT22;10160;50.926;4.374;2022-12-29T00:27:57;12.10;99.90
19999;DHT22;10160;50.926;4.374;2022-12-29T00:30:41;12.10;99.90
19999;DHT22;10160;50.926;4.374;2022-12-29T00:33:29;12.20;99.90
19999;DHT22;10160;50.926;4.374;2022-12-29T00:38:46;12.20;99.90
19999;DHT22;10160;50.926;4.374;2022-12-29T00:41:32;12.20;99.90
19999;DHT22;10160;50.926;4.374;2022-12-29T00:44:16;12.30;99.90
19999;DHT22;10160;50.926;4.374;2022-12-29T00:46:43;12.40;99.90
19999;DHT22;10160;50.926;4.374;2022-12-29T00:49:12;12.40;99.90
19999;DHT22;10160;50.926;4.374;2022-12-29T00:52:01;12.40;99.90
19999;DHT22;10160;50.926;4.374;2022-12-29T00:54:28;12.40;99.90
19999;DHT22;10160;50.926;4.374;2022-12-29T00:56:54;12.40;99.90
19999;DHT22;10160;50.926;4.374;2022-12-29T00:59:20;12.40;99.90
19999;DHT22;10160;50.926;4.374;2022-12-29T01:01:47;12.50;99.90
19999;DHT22;10160;50.926;4.374;2022-12-29T01:04:13;12.50;99.90
19999;DHT22;10160;50.926;4.374;2022-12-29T01:06:40;12.50;99.90
19999;DHT22;10160;50.926;4.374;2022-12-29T01:09:06;12.50;99.90
19999;DHT22;10160;50.926;4.374;2022-12-29T01:11:50;12.40;99.90
19999;DHT22;10160;50.926;4.374;2022-12-29T01:14:17;12.30;99.90
19999;DHT22;10160;50.926;4.374;2022-12-29T01:16:44;12.20;99.90
19999;DHT22;10160;50.926;4.374;2022-12-29T01:19:09;12.20;99.90
19999;DHT22;10160;50.926;4.374;2022-12-29T01:21:35;12.20;99.90
19999;DHT22;10160;50.926;4.374;2022-12-29T01:24:01;12.30;99.90
19999;DHT22;10160;50.926;4.374;2022-12-29T01:26:26;12.20;99.90
19999;DHT22;10160;50.926;4.374;2022-12-29T01:28:52;12.10;99.90
19999;DHT22;10160;50.926;4.374;2022-12-29T01:31:18;12.10;99.90
19999;DHT22;10160;50.926;4.374;2022-12-29T01:33:44;12.00;99.90
19999;DHT22;10160;50.926;4.374;2022-12-29T01:36:15;12.00;99.90
19999;DHT22;10160;50.926;4.374;2022-12-29T01:38:41;11.90;99.90
19999;DHT22;10160;50.926;4.374;2022-12-29T01:41:08;11.80;99.90
19999;DHT22;10160;50.926;4.374;2022-12-29T01:43:55;11.90;99.90
19999;DHT22;10160;50.926;4.374;2022-12-29T01:46:40;11.80;99.90
19999;DHT22;10160;50.926;4.374;2022-12-29T01:49:19;11.70;99.90
19999;DHT22;10160;50.926;4.374;2022-12-29T01:52:06;11.70;99.90
19999;DHT22;10160;50.926;4.374;2022-12-29T01:54:40;11.60;99.90
19999;DHT22;10160;50.926;4.374;2022-12-29T01:57:11;11.60;99.90
19999;DHT22;10160;50.926;4.374;2022-12-29T01:59:43;11.60;99.90
19999;DHT22;10160;50.926;4.374;2022-12-29T02:02:11;11.70;99.90
19999;DHT22;10160;50.926;4.374;2022-12-29T02:04:40;11.70;99.90
19999;DHT22;10160;50.926;4.374;2022-12-29T02:07:14;11.60;99.90
19999;DHT22;10160;50.926;4.374;2022-12-29T02:09:42;11.60;99.90
19999;DHT22;10160;50.926;4.374;2022-12-29T02:12:09;11.60;99.90
19999;DHT22;10160;50.926;4.374;2022-12-29T02:14:35;11.60;99.90
19999;DHT22;10160;50.926;4.374;2022-12-29T02:17:17;11.50;99.90
19999;DHT22;10160;50.926;4.374;2022-12-29T02:31:40;11.10;99.90
19999;DHT22;10160;50.926;4.374;2022-12-29T02:35:02;11.00;99.90
19999;DHT22;10160;50.926;4.374;2022-12-29T02:42:51;10.80;99.90
19999;DHT22;10160;50.926;4.374;2022-12-29T02:46:19;10.80;99.90
19999;DHT22;10160;50.926;4.374;2022-12-29T02:48:37;10.80;99.90
19999;DHT22;10160;50.926;4.374;2022-12-29T02:54:10;10.90;99.90
19999;DHT22;10160;50.926;4.374;2022-12-29T02:56:54;10.90;99.90
19999;DHT22;10160;50.926;4.374;2022-12-29T02:59:20;10.90;99.90
19999;DHT22;10160;50.926;4.374;2022-12-29T03:22:16;10.60;99.90
19999;DHT22;10160;50.926;4.374;2022-12-29T03:24:41;10.60;99.90
19999;DHT22;10160;50.926;4.374;2022-12-29T03:27:12;10.60;99.90
19999;DHT22;10160;50.926;4.374;2022-12-29T03:29:48;10.60;99.90
19999;DHT22;10160;50.926;4.374;2022-12-29T03:32:20;10.70;99.90
19999;DHT22;10160;50.926;4.374;2022-12-29T03:34:48;10.70;99.90
19999;DHT22;10160;50.926;4.374;2022-12-29T03:37:22;10.80;99.90
19999;DHT22;10160;50.926;4.374;2022-12-29T03:39:49;10.80;99.90
19999;DHT22;10160;50.926;4.374;2022-12-29T03:42:18;10.80;99.90
19999;DHT22;10160;50.926;4.374;2022-12-29T03:44:45;10.90;99.90
19999;DHT22;10160;50.926;4.374;2022-12-29T03:47:12;10.90;99.90
19999;DHT22;10160;50.926;4.374;2022-12-29T03:49:38;11.00;99.90
19999;DHT22;10160;50.926;4.374;2022-12-29T03:52:04;11.00;99.90
19999;DHT22;10160;50.926;4.374;2022-12-29T03:54:30;11.00;99.90
19999;DHT22;10160;50.926;4.374;2022-12-29T03:56:56;10.90;99.90
19999;DHT22;10160;50.926;4.374;2022-12-29T03:59:22;10.90;99.90
19999;DHT22;10160;50.926;4.374;2022-12-29T04:01:47;10.90;99.90
19999;DHT22;10160;50.926;4.374;2022-12-29T04:04:13;10.90;99.90
19999;DHT22;10160;50.926;4.374;2022-12-29T04:06:39;10.90;99.90
19999;DHT22;10160;50.926;4.374;2022-12-29T04:09:05;10.90;99.90
19999;DHT22;10160;50.926;4.374;2022-12-29T04:11:30;10.90;99.90
19999;DHT22;10160;50.926;4.374;2022-12-29T04:13:56;11.00;99.90
19999;DHT22;10160;50.926;4.374;2022-12-29T04:16:22;11.00;99.90
19999;DHT22;10160;50.926;4.374;2022-12-29T04:18:47;10.90;99.90
19999;DHT22;10160;50.926;4.374;2022-12-29T04:21:13;10.90;99.90
19999;DHT22;10160;50.926;4.374;2022-12-29T04:23:39;10.80;99.90
19999;DHT22;10160;50.926;4.374;2022-12-29T04:26:06;10.90;99.90
19999;DHT22;10160;50.926;4.374;2022-12-29T04:28:33;10.80;99.90
19999;DHT22;10160;50.926;4.374;2022-12-29T04:30:59;10.80;99.90
19999;DHT22;10160;50.926;4.374;2022-12-29T04:33:25;10.80;99.90
19999;DHT22;10160;50.926;4.374;2022-12-29T04:35:51;10.80;99.90
19999;DHT22;10160;50.926;4.374;2022-12-29T04:38:20;10.80;99.90
19999;DHT22;10160;50.926;4.374;2022-12-29T04:40:46;10.90;99.90
19999;DHT22;10160;50.926;4.374;2022-12-29T04:43:12;10.80;99.90
19999;DHT22;10160;50.926;4.374;2022-12-29T04:45:45;10.90;99.90
19999;DHT22;10160;50.926;4.374;2022-12-29T04:48:11;11.00;99.90
19999;DHT22;10160;50.926;4.374;2022-12-29T04:50:37;11.00;99.90
19999;DHT22;10160;50.926;4.374;2022-12-29T04:53:03;11.00;99.90
19999;DHT22;10160;50.926;4.374;2022-12-29T04:55:28;10.90;99.90
19999;DHT22;10160;50.926;4.374;2022-12-29T04:57:54;10.80;99.90
19999;DHT22;10160;50.926;4.374;2022-12-29T05:00:20;10.90;99.90
19999;DHT22;10160;50.926;4.374;2022-12-29T05:02:46;10.90;99.90
19999;DHT22;10160;50.926;4.374;2022-12-29T05:05:11;10.80;99.90
19999;DHT22;10160;50.926;4.374;2022-12-29T05:07:37;10.80;99.90
19999;DHT22;10160;50.926;4.374;2022-12-29T05:10:04;10.90;99.90
19999;DHT22;10160;50.926;4.374;2022-12-29T05:12:34;10.90;99.90
19999;DHT22;10160;50.926;4.374;2022-12-29T05:15:01;10.90;99.90
19999;DHT22;10160;50.926;4.374;2022-12-29T05:17:28;11.00;99.90
19999;DHT22;10160;50.926;4.374;2022-12-29T05:19:54;11.00;99.90
19999;DHT22;10160;50.926;4.374;2022-12-29T05:22:20;11.00;99.90
19999;DHT22;10160;50.926;4.374;2022-12-29T05:24:46;11.00;99.90
19999;DHT22;10160;50.926;4.374;2022-12-29T05:27:11;11.00;99.90
19999;DHT22;10160;50.926;4.374;2022-12-29T05:29:37;11.00;99.90
19999;DHT22;10160;50.926;4.374;2022-12-29T05:32:03;11.10;99.90
19999;DHT22;10160;50.926;4.374;2022-12-29T05:34:28;11.10;99.90
19999;DHT22;10160;50.926;4.374;2022-12-29T05:36:54;11.10;99.90
19999;DHT22;10160;50.926;4.374;2022-12-29T05:39:19;11.10;99.90
19999;DHT22;10160;50.926;4.374;2022-12-29T05:41:45;11.10;99.90
19999;DHT22;10160;50.926;4.374;2022-12-29T05:44:11;11.10;99.90
19999;DHT22;10160;50.926;4.374;2022-12-29T05:46:37;11.20;99.90
19999;DHT22;10160;50.926;4.374;2022-12-29T05:49:02;11.20;99.90
19999;DHT22;10160;50.926;4.374;2022-12-29T05:51:28;11.20;99.90
19999;DHT22;10160;50.926;4.374;2022-12-29T05:53:54;11.10;99.90
19999;DHT22;10160;50.926;4.374;2022-12-29T05:56:19;11.10;99.90
19999;DHT22;10160;50.926;4.374;2022-12-29T05:58:45;11.10;99.90
19999;DHT22;10160;50.926;4.374;2022-12-29T06:01:11;11.10;99.90
19999;DHT22;10160;50.926;4.374;2022-12-29T06:03:36;11.00;99.90
19999;DHT22;10160;50.926;4.374;2022-12-29T06:06:02;11.10;99.90
19999;DHT22;10160;50.926;4.374;2022-12-29T06:08:28;11.10;99.90
19999;DHT22;10160;50.926;4.374;2022-12-29T06:10:53;11.00;99.90
19999;DHT22;10160;50.926;4.374;2022-12-29T06:13:19;11.10;99.90
19999;DHT22;10160;50.926;4.374;2022-12-29T06:15:45;11.10;99.90
19999;DHT22;10160;50.926;4.374;2022-12-29T06:18:10;11.00;99.90
19999;DHT22;10160;50.926;4.374;2022-12-29T06:20:36;11.00;99.90
19999;DHT22;10160;50.926;4.374;2022-12-29T06:23:02;11.00;99.90
19999;DHT22;10160;50.926;4.374;2022-12-29T06:25:27;11.00;99.90
19999;DHT22;10160;50.926;4.374;2022-12-29T06:27:56;11.00;99.90
19999;DHT22;10160;50.926;4.374;2022-12-29T06:30:21;11.00;99.90
19999;DHT22;10160;50.926;4.374;2022-12-29T06:32:47;11.00;99.90
19999;DHT22;10160;50.926;4.374;2022-12-29T06:35:13;11.00;99.90
19999;DHT22;10160;50.926;4.374;2022-12-29T06:37:38;11.00;99.90
19999;DHT22;10160;50.926;4.374;2022-12-29T06:40:05;11.00;99.90
19999;DHT22;10160;50.926;4.374;2022-12-29T06:42:30;11.00;99.90
19999;DHT22;10160;50.926;4.374;2022-12-29T06:44:56;11.10;99.90
19999;DHT22;10160;50.926;4.374;2022-12-29T06:47:24;11.10;99.90
19999;DHT22;10160;50.926;4.374;2022-12-29T06:49:50;11.10;99.90
19999;DHT22;10160;50.926;4.374;2022-12-29T06:52:15;11.10;99.90
19999;DHT22;10160;50.926;4.374;2022-12-29T06:54:41;11.10;99.90
19999;DHT22;10160;50.926;4.374;2022-12-29T06:57:07;11.10;99.90
19999;DHT22;10160;50.926;4.374;2022-12-29T06:59:32;11.10;99.90
19999;DHT22;10160;50.926;4.374;2022-12-29T07:01:58;11.10;99.90
19999;DHT22;10160;50.926;4.374;2022-12-29T07:04:23;11.20;99.90
19999;DHT22;10160;50.926;4.374;2022-12-29T07:06:49;11.20;99.90
19999;DHT22;10160;50.926;4.374;2022-12-29T07:09:15;11.10;99.90
19999;DHT22;10160;50.926;4.374;2022-12-29T07:11:40;11.10;99.90
19999;DHT22;10160;50.926;4.374;2022-12-29T07:14:06;11.10;99.90
19999;DHT22;10160;50.926;4.374;2022-12-29T07:16:32;11.10;99.90
19999;DHT22;10160;50.926;4.374;2022-12-29T07:18:59;11.10;99.90
19999;DHT22;10160;50.926;4.374;2022-12-29T07:21:25;11.20;99.90
19999;DHT22;10160;50.926;4.374;2022-12-29T07:23:50;11.20;99.90
19999;DHT22;10160;50.926;4.374;2022-12-29T07:26:16;11.20;99.90
19999;DHT22;10160;50.926;4.374;2022-12-29T07:28:45;11.20;99.90
19999;DHT22;10160;50.926;4.374;2022-12-29T07:31:15;11.20;99.90
19999;DHT22;10160;50.926;4.374;2022-12-29T07:33:42;11.20;99.90
19999;DHT22;10160;50.926;4.374;2022-12-29T07:36:09;11.20;99.90
19999;DHT22;10160;50.926;4.374;2022-12-29T07:38:34;11.20;99.90
19999;DHT22;10160;50.926;4.374;2022-12-29T07:41:00;11.20;99.90
19999;DHT22;10160;50.926;4.374;2022-12-29T07:43:26;11.20;99.90
19999;DHT22;10160;50.926;4.374;2022-12-29T07:45:51;11.20;99.90
19999;DHT22;10160;50.926;4.374;2022-12-29T07:48:17;11.20;99.90
19999;DHT22;10160;50.926;4.374;2022-12-29T07:50:43;11.20;99.90
19999;DHT22;10160;50.926;4.374;2022-12-29T07:53:08;11.10;99.90
19999;DHT22;10160;50.926;4.374;2022-12-29T07:55:34;11.20;99.90
19999;DHT22;10160;50.926;4.374;2022-12-29T07:58:00;11.20;99.90
19999;DHT22;10160;50.926;4.374;2022-12-29T08:00:25;11.20;99.90
19999;DHT22;10160;50.926;4.374;2022-12-29T08:02:51;11.20;99.90
19999;DHT22;10160;50.926;4.374;2022-12-29T08:05:17;11.10;99.90
19999;DHT22;10160;50.926;4.374;2022-12-29T08:07:44;11.10;99.90
19999;DHT22;10160;50.926;4.374;2022-12-29T08:10:11;11.00;99.90
19999;DHT22;10160;50.926;4.374;2022-12-29T08:12:40;11.10;99.90
19999;DHT22;10160;50.926;4.374;2022-12-29T08:15:08;11.10;99.90
19999;DHT22;10160;50.926;4.374;2022-12-29T08:17:34;11.10;99.90
19999;DHT22;10160;50.926;4.374;2022-12-29T08:19:59;11.20;99.90
19999;DHT22;10160;50.926;4.374;2022-12-29T08:22:25;11.20;99.90
19999;DHT22;10160;50.926;4.374;2022-12-29T08:24:51;11.10;99.90
19999;DHT22;10160;50.926;4.374;2022-12-29T08:27:17;11.20;99.90
19999;DHT22;10160;50.926;4.374;2022-12-29T08:29:43;11.10;99.90
19999;DHT22;10160;50.926;4.374;2022-12-29T08:32:08;11.10;99.90
19999;DHT22;10160;50.926;4.374;2022-12-29T08:34:34;11.10;99.90
19999;DHT22;10160;50.926;4.374;2022-12-29T08:37:00;11.10;99.90
19999;DHT22;10160;50.926;4.374;2022-12-29T08:39:25;11.00;99.90
19999;DHT22;10160;50.926;4.374;2022-12-29T08:41:51;11.00;99.90
19999;DHT22;10160;50.926;4.374;2022-12-29T08:44:17;11.10;99.90
19999;DHT22;10160;50.926;4.374;2022-12-29T08:46:42;11.10;99.90
19999;DHT22;10160;50.926;4.374;2022-12-29T08:49:08;11.10;99.90
19999;DHT22;10160;50.926;4.374;2022-12-29T08:51:34;11.10;99.90
19999;DHT22;10160;50.926;4.374;2022-12-29T08:54:00;11.10;99.90
19999;DHT22;10160;50.926;4.374;2022-12-29T08:56:26;11.00;99.90
19999;DHT22;10160;50.926;4.374;2022-12-29T08:58:52;11.00;99.90
19999;DHT22;10160;50.926;4.374;2022-12-29T09:01:18;10.80;99.90
19999;DHT22;10160;50.926;4.374;2022-12-29T09:03:44;10.80;99.90
19999;DHT22;10160;50.926;4.374;2022-12-29T09:06:10;10.80;99.90
19999;DHT22;10160;50.926;4.374;2022-12-29T09:08:35;10.80;99.90
19999;DHT22;10160;50.926;4.374;2022-12-29T09:11:09;10.80;99.90
19999;DHT22;10160;50.926;4.374;2022-12-29T09:13:35;10.80;99.90
19999;DHT22;10160;50.926;4.374;2022-12-29T09:16:01;10.70;99.90
19999;DHT22;10160;50.926;4.374;2022-12-29T09:18:26;10.60;99.90
19999;DHT22;10160;50.926;4.374;2022-12-29T09:20:59;10.50;99.90
19999;DHT22;10160;50.926;4.374;2022-12-29T09:23:26;10.50;99.90
19999;DHT22;10160;50.926;4.374;2022-12-29T09:25:52;10.50;99.90
19999;DHT22;10160;50.926;4.374;2022-12-29T09:28:18;10.50;99.90
19999;DHT22;10160;50.926;4.374;2022-12-29T09:30:44;10.50;99.90
19999;DHT22;10160;50.926;4.374;2022-12-29T09:33:09;10.50;99.90
19999;DHT22;10160;50.926;4.374;2022-12-29T09:35:35;10.50;99.90
19999;DHT22;10160;50.926;4.374;2022-12-29T09:38:01;10.50;99.90
19999;DHT22;10160;50.926;4.374;2022-12-29T09:40:30;10.30;99.90
19999;DHT22;10160;50.926;4.374;2022-12-29T09:48:45;10.30;99.90
19999;DHT22;10160;50.926;4.374;2022-12-29T09:51:18;10.20;99.90
19999;DHT22;10160;50.926;4.374;2022-12-29T09:53:55;10.10;99.90
19999;DHT22;10160;50.926;4.374;2022-12-29T09:56:22;10.20;99.90
19999;DHT22;10160;50.926;4.374;2022-12-29T09:59:21;10.20;99.90
19999;DHT22;10160;50.926;4.374;2022-12-29T10:02:16;10.30;99.90
19999;DHT22;10160;50.926;4.374;2022-12-29T10:04:45;10.40;99.90
19999;DHT22;10160;50.926;4.374;2022-12-29T10:07:29;10.50;99.90
19999;DHT22;10160;50.926;4.374;2022-12-29T10:12:58;10.70;99.90
19999;DHT22;10160;50.926;4.374;2022-12-29T10:18:08;10.80;99.90
19999;DHT22;10160;50.926;4.374;2022-12-29T10:23:44;10.90;99.90
19999;DHT22;10160;50.926;4.374;2022-12-29T10:26:20;10.90;99.90
19999;DHT22;10160;50.926;4.374;2022-12-29T10:28:57;11.00;99.90
19999;DHT22;10160;50.926;4.374;2022-12-29T10:31:39;11.00;99.90
19999;DHT22;10160;50.926;4.374;2022-12-29T10:34:21;11.00;99.90
19999;DHT22;10160;50.926;4.374;2022-12-29T10:36:49;11.00;99.90
19999;DHT22;10160;50.926;4.374;2022-12-29T10:39:26;11.20;99.90
19999;DHT22;10160;50.926;4.374;2022-12-29T10:42:07;11.20;99.90
19999;DHT22;10160;50.926;4.374;2022-12-29T10:44:34;11.30;99.90
19999;DHT22;10160;50.926;4.374;2022-12-29T10:47:12;11.30;99.90
19999;DHT22;10160;50.926;4.374;2022-12-29T10:49:41;11.40;99.90
19999;DHT22;10160;50.926;4.374;2022-12-29T10:52:08;11.40;99.90
19999;DHT22;10160;50.926;4.374;2022-12-29T10:54:58;11.40;99.90
19999;DHT22;10160;50.926;4.374;2022-12-29T10:57:36;11.30;99.90
19999;DHT22;10160;50.926;4.374;2022-12-29T11:00:18;11.40;99.90
19999;DHT22;10160;50.926;4.374;2022-12-29T11:05:54;11.50;99.90
19999;DHT22;10160;50.926;4.374;2022-12-29T11:08:28;11.50;99.90
19999;DHT22;10160;50.926;4.374;2022-12-29T11:11:08;11.40;99.90
19999;DHT22;10160;50.926;4.374;2022-12-29T11:13:47;11.40;99.90
19999;DHT22;10160;50.926;4.374;2022-12-29T11:16:12;11.30;99.90
19999;DHT22;10160;50.926;4.374;2022-12-29T11:18:40;11.30;99.90
19999;DHT22;10160;50.926;4.374;2022-12-29T11:24:23;11.40;99.90
19999;DHT22;10160;50.926;4.374;2022-12-29T11:26:54;11.40;99.90
19999;DHT22;10160;50.926;4.374;2022-12-29T11:29:24;11.40;99.90
19999;DHT22;10160;50.926;4.374;2022-12-29T11:31:55;11.50;99.90
19999;DHT22;10160;50.926;4.374;2022-12-29T11:34:23;11.50;99.90
19999;DHT22;10160;50.926;4.374;2022-12-29T11:36:52;11.50;99.90
19999;DHT22;10160;50.926;4.374;2022-12-29T11:39:34;11.50;99.90
19999;DHT22;10160;50.926;4.374;2022-12-29T11:42:02;11.40;99.90
19999;DHT22;10160;50.926;4.374;2022-12-29T11:44:36;11.30;99.90
19999;DHT22;10160;50.926;4.374;2022-12-29T11:47:02;11.20;99.90
19999;DHT22;10160;50.926;4.374;2022-12-29T11:49:29;11.10;99.90
19999;DHT22;10160;50.926;4.374;2022-12-29T11:51:55;11.10;99.90
19999;DHT22;10160;50.926;4.374;2022-12-29T11:54:29;11.10;99.90
19999;DHT22;10160;50.926;4.374;2022-12-29T11:56:57;11.10;99.90
19999;DHT22;10160;50.926;4.374;2022-12-29T12:01:56;10.80;99.90
19999;DHT22;10160;50.926;4.374;2022-12-29T12:04:26;10.80;99.90
19999;DHT22;10160;50.926;4.374;2022-12-29T12:09:45;10.80;99.90
19999;DHT22;10160;50.926;4.374;2022-12-29T12:12:27;10.80;99.90
19999;DHT22;10160;50.926;4.374;2022-12-29T12:14:56;10.80;99.90
19999;DHT22;10160;50.926;4.374;2022-12-29T12:20:28;11.00;99.90
19999;DHT22;10160;50.926;4.374;2022-12-29T12:23:19;10.90;99.90
19999;DHT22;10160;50.926;4.374;2022-12-29T12:26:32;10.80;99.90
19999;DHT22;10160;50.926;4.374;2022-12-29T12:29:12;10.80;99.90
19999;DHT22;10160;50.926;4.374;2022-12-29T12:31:47;10.70;99.90
19999;DHT22;10160;50.926;4.374;2022-12-29T12:34:26;10.70;99.90
19999;DHT22;10160;50.926;4.374;2022-12-29T12:43:14;10.80;99.90
19999;DHT22;10160;50.926;4.374;2022-12-29T12:46:13;10.80;99.90
19999;DHT22;10160;50.926;4.374;2022-12-29T12:51:49;11.00;99.90
19999;DHT22;10160;50.926;4.374;2022-12-29T12:54:50;11.00;99.90
19999;DHT22;10160;50.926;4.374;2022-12-29T12:57:49;11.00;99.90
19999;DHT22;10160;50.926;4.374;2022-12-29T13:00:19;11.00;99.90
19999;DHT22;10160;50.926;4.374;2022-12-29T13:08:36;10.90;99.90
19999;DHT22;10160;50.926;4.374;2022-12-29T13:16:50;10.80;99.90
19999;DHT22;10160;50.926;4.374;2022-12-29T13:19:30;10.80;99.90
19999;DHT22;10160;50.926;4.374;2022-12-29T13:22:13;10.90;99.90
19999;DHT22;10160;50.926;4.374;2022-12-29T13:25:24;10.90;99.90
19999;DHT22;10160;50.926;4.374;2022-12-29T13:28:31;10.90;99.90
19999;DHT22;10160;50.926;4.374;2022-12-29T13:31:26;11.00;99.90
19999;DHT22;10160;50.926;4.374;2022-12-29T13:33:59;11.10;99.90
19999;DHT22;10160;50.926;4.374;2022-12-29T13:36:40;11.20;99.90
19999;DHT22;10160;50.926;4.374;2022-12-29T13:41:50;11.10;99.90
19999;DHT22;10160;50.926;4.374;2022-12-29T13:44:24;11.20;99.90
19999;DHT22;10160;50.926;4.374;2022-12-29T13:46:50;11.30;99.90
19999;DHT22;10160;50.926;4.374;2022-12-29T13:49:18;11.30;99.90
19999;DHT22;10160;50.926;4.374;2022-12-29T13:51:50;11.30;99.90
19999;DHT22;10160;50.926;4.374;2022-12-29T13:54:41;11.50;99.90
19999;DHT22;10160;50.926;4.374;2022-12-29T14:00:21;11.50;99.90
19999;DHT22;10160;50.926;4.374;2022-12-29T14:07:44;11.00;99.90
19999;DHT22;10160;50.926;4.374;2022-12-29T14:10:46;11.00;99.90
19999;DHT22;10160;50.926;4.374;2022-12-29T14:13:24;11.00;99.90
19999;DHT22;10160;50.926;4.374;2022-12-29T14:15:56;10.80;99.90
19999;DHT22;10160;50.926;4.374;2022-12-29T14:18:41;10.90;99.90
19999;DHT22;10160;50.926;4.374;2022-12-29T14:21:25;10.90;99.90
19999;DHT22;10160;50.926;4.374;2022-12-29T14:26:45;10.90;99.90
19999;DHT22;10160;50.926;4.374;2022-12-29T14:31:55;9.90;99.90
19999;DHT22;10160;50.926;4.374;2022-12-29T14:36:53;9.40;99.90
19999;DHT22;10160;50.926;4.374;2022-12-29T14:39:32;9.20;99.90
19999;DHT22;10160;50.926;4.374;2022-12-29T14:42:01;9.10;99.90
19999;DHT22;10160;50.926;4.374;2022-12-29T14:44:28;9.10;99.90
19999;DHT22;10160;50.926;4.374;2022-12-29T14:46:55;9.10;99.90
19999;DHT22;10160;50.926;4.374;2022-12-29T14:49:28;9.00;99.90
19999;DHT22;10160;50.926;4.374;2022-12-29T14:52:13;9.10;99.90
19999;DHT22;10160;50.926;4.374;2022-12-29T14:57:19;9.10;99.90
19999;DHT22;10160;50.926;4.374;2022-12-29T14:59:46;9.10;99.90
19999;DHT22;10160;50.926;4.374;2022-12-29T15:02:24;9.10;99.90
19999;DHT22;10160;50.926;4.374;2022-12-29T15:04:52;9.10;99.90
19999;DHT22;10160;50.926;4.374;2022-12-29T15:07:19;9.10;99.90
19999;DHT22;10160;50.926;4.374;2022-12-29T15:09:50;8.90;99.90
19999;DHT22;10160;50.926;4.374;2022-12-29T15:15:10;8.80;99.90
19999;DHT22;10160;50.926;4.374;2022-12-29T15:17:41;8.70;99.90
19999;DHT22;10160;50.926;4.374;2022-12-29T15:20:20;8.60;99.90
19999;DHT22;10160;50.926;4.374;2022-12-29T15:22:55;8.60;99.90
19999;DHT22;10160;50.926;4.374;2022-12-29T15:25:21;8.60;99.90
19999;DHT22;10160;50.926;4.374;2022-12-29T15:27:52;8.50;99.90
19999;DHT22;10160;50.926;4.374;2022-12-29T15:30:18;8.50;99.90
19999;DHT22;10160;50.926;4.374;2022-12-29T15:32:45;8.50;99.90
19999;DHT22;10160;50.926;4.374;2022-12-29T15:35:31;8.50;99.90
19999;DHT22;10160;50.926;4.374;2022-12-29T15:37:58;8.60;99.90
19999;DHT22;10160;50.926;4.374;2022-12-29T15:40:27;8.60;99.90
19999;DHT22;10160;50.926;4.374;2022-12-29T15:43:06;8.60;99.90
19999;DHT22;10160;50.926;4.374;2022-12-29T15:45:35;8.60;99.90
19999;DHT22;10160;50.926;4.374;2022-12-29T15:48:01;8.70;99.90
19999;DHT22;10160;50.926;4.374;2022-12-29T15:50:32;8.60;99.90
19999;DHT22;10160;50.926;4.374;2022-12-29T15:52:59;8.60;99.90
19999;DHT22;10160;50.926;4.374;2022-12-29T15:55:37;8.60;99.90
19999;DHT22;10160;50.926;4.374;2022-12-29T15:58:05;8.70;99.90
19999;DHT22;10160;50.926;4.374;2022-12-29T16:00:34;8.70;99.90
19999;DHT22;10160;50.926;4.374;2022-12-29T16:03:02;8.70;99.90
19999;DHT22;10160;50.926;4.374;2022-12-29T16:05:34;8.70;99.90
19999;DHT22;10160;50.926;4.374;2022-12-29T16:08:01;8.70;99.90
19999;DHT22;10160;50.926;4.374;2022-12-29T16:10:37;8.70;99.90
19999;DHT22;10160;50.926;4.374;2022-12-29T16:15:52;8.60;99.90
19999;DHT22;10160;50.926;4.374;2022-12-29T16:18:29;8.70;99.90
19999;DHT22;10160;50.926;4.374;2022-12-29T16:20:56;8.60;99.90
19999;DHT22;10160;50.926;4.374;2022-12-29T16:23:27;8.60;99.90
19999;DHT22;10160;50.926;4.374;2022-12-29T16:25:55;8.60;99.90
19999;DHT22;10160;50.926;4.374;2022-12-29T16:28:35;8.70;99.90
19999;DHT22;10160;50.926;4.374;2022-12-29T16:31:06;8.70;99.90
19999;DHT22;10160;50.926;4.374;2022-12-29T16:33:51;8.70;99.90
19999;DHT22;10160;50.926;4.374;2022-12-29T16:36:39;8.70;99.90
19999;DHT22;10160;50.926;4.374;2022-12-29T16:41:49;8.70;99.90
19999;DHT22;10160;50.926;4.374;2022-12-29T16:49:37;8.70;99.90
19999;DHT22;10160;50.926;4.374;2022-12-29T16:52:18;8.70;99.90
19999;DHT22;10160;50.926;4.374;2022-12-29T16:54:53;8.70;99.90
19999;DHT22;10160;50.926;4.374;2022-12-29T16:57:46;8.70;99.90
19999;DHT22;10160;50.926;4.374;2022-12-29T17:00:23;8.70;99.90
19999;DHT22;10160;50.926;4.374;2022-12-29T17:02:52;8.60;99.90
19999;DHT22;10160;50.926;4.374;2022-12-29T17:05:19;8.70;99.90
19999;DHT22;10160;50.926;4.374;2022-12-29T17:07:45;8.70;99.90
19999;DHT22;10160;50.926;4.374;2022-12-29T17:10:11;8.70;99.90
19999;DHT22;10160;50.926;4.374;2022-12-29T17:12:41;8.70;99.90
19999;DHT22;10160;50.926;4.374;2022-12-29T17:15:27;8.70;99.90
19999;DHT22;10160;50.926;4.374;2022-12-29T17:17:59;8.70;99.90
19999;DHT22;10160;50.926;4.374;2022-12-29T17:20:30;8.70;99.90
19999;DHT22;10160;50.926;4.374;2022-12-29T17:22:56;8.70;99.90
19999;DHT22;10160;50.926;4.374;2022-12-29T17:25:31;8.70;99.90
19999;DHT22;10160;50.926;4.374;2022-12-29T17:30:32;8.80;99.90
19999;DHT22;10160;50.926;4.374;2022-12-29T17:33:03;8.80;99.90
19999;DHT22;10160;50.926;4.374;2022-12-29T17:35:29;8.80;99.90
19999;DHT22;10160;50.926;4.374;2022-12-29T17:37:55;8.80;99.90
19999;DHT22;10160;50.926;4.374;2022-12-29T17:40:24;8.80;99.90
19999;DHT22;10160;50.926;4.374;2022-12-29T17:42:56;8.80;99.90
19999;DHT22;10160;50.926;4.374;2022-12-29T17:45:30;8.80;99.90
19999;DHT22;10160;50.926;4.374;2022-12-29T17:47:57;8.80;99.90
19999;DHT22;10160;50.926;4.374;2022-12-29T17:50:27;8.80;99.90
19999;DHT22;10160;50.926;4.374;2022-12-29T17:53:03;8.80;99.90
19999;DHT22;10160;50.926;4.374;2022-12-29T17:55:30;8.80;99.90
19999;DHT22;10160;50.926;4.374;2022-12-29T17:57:56;8.80;99.90
19999;DHT22;10160;50.926;4.374;2022-12-29T18:00:25;8.80;99.90
19999;DHT22;10160;50.926;4.374;2022-12-29T18:02:55;8.80;99.90
19999;DHT22;10160;50.926;4.374;2022-12-29T18:05:27;8.80;99.90
19999;DHT22;10160;50.926;4.374;2022-12-29T18:07:54;8.80;99.90
19999;DHT22;10160;50.926;4.374;2022-12-29T18:10:24;8.80;99.90